Time;durP1;ratioP1;P1;durP2;ratioP2;P2;SDS_P1;SDS_P2;PMS_P1;PMS_P2;Temp;Humidity;BMP_temperature;BMP_pressure;BME280_temperature;BME280_humidity;BME280_pressure;Samples;Min_cycle;Max_cycle;Signal;HPM_P1;HPM_P2
2021/05/05 00:00:14;;;;;;;19.25;7.07;;;29.10;30.60;;;;;;1045003;28;20469;-74
2021/05/05 00:00:46;;;;;;;20.77;6.55;;;29.00;30.80;;;;;;1044952;28;20083;-73
2021/05/05 00:01:18;;;;;;;20.88;6.53;;;28.90;31.20;;;;;;1045302;28;20068;-73
2021/05/05 00:01:55;;;;;;;20.50;6.47;;;28.90;31.50;;;;;;1044917;28;20033;-73
2021/05/05 00:02:27;;;;;;;19.50;6.45;;;28.90;31.80;;;;;;1045033;28;20103;-73
2021/05/05 00:02:58;;;;;;;20.48;6.78;;;28.80;31.10;;;;;;1045107;28;20021;-73
2021/05/05 00:03:30;;;;;;;19.67;6.00;;;28.90;30.70;;;;;;1045504;28;20028;-73
2021/05/05 00:04:01;;;;;;;20.75;6.82;;;28.80;30.50;;;;;;1045366;28;20049;-73
2021/05/05 00:04:32;;;;;;;19.95;6.55;;;28.80;30.70;;;;;;1045329;28;20082;-74
2021/05/05 00:05:04;;;;;;;21.90;6.60;;;28.80;30.70;;;;;;1044986;28;20025;-73
2021/05/05 00:05:35;;;;;;;19.52;6.13;;;28.80;30.80;;;;;;1044945;28;20031;-74
2021/05/05 00:06:08;;;;;;;20.05;6.45;;;28.80;30.80;;;;;;1042463;28;20375;-73
2021/05/05 00:06:41;;;;;;;20.00;6.50;;;28.80;30.90;;;;;;1044689;28;20099;-73
2021/05/05 00:07:12;;;;;;;21.13;6.20;;;28.80;30.70;;;;;;1045080;28;20043;-73
2021/05/05 00:07:43;;;;;;;19.05;6.55;;;28.80;30.30;;;;;;1044790;28;20355;-73
2021/05/05 00:08:15;;;;;;;21.77;6.28;;;28.80;30.60;;;;;;1044978;28;20466;-73
2021/05/05 00:08:48;;;;;;;22.63;6.45;;;28.70;30.80;;;;;;1041062;28;20528;-72
2021/05/05 00:09:19;;;;;;;18.55;6.38;;;28.70;30.40;;;;;;1036896;28;20036;-73
2021/05/05 00:09:51;;;;;;;21.45;5.95;;;28.70;30.60;;;;;;1037241;28;20017;-73
2021/05/05 00:10:22;;;;;;;19.20;6.63;;;28.70;30.70;;;;;;1037550;28;20029;-73
2021/05/05 00:10:54;;;;;;;19.85;6.72;;;28.70;30.80;;;;;;1044941;28;20021;-74
2021/05/05 00:11:25;;;;;;;19.95;6.53;;;28.60;30.90;;;;;;1045044;28;20123;-73
2021/05/05 00:11:56;;;;;;;21.42;6.85;;;28.60;31.10;;;;;;1043053;28;20021;-72
2021/05/05 00:12:28;;;;;;;23.42;7.03;;;28.60;31.10;;;;;;1043721;28;20130;-75
2021/05/05 00:12:59;;;;;;;21.10;6.68;;;28.60;30.70;;;;;;1043714;28;20029;-74
2021/05/05 00:13:30;;;;;;;19.63;6.65;;;28.50;31.10;;;;;;1041610;28;20044;-73
2021/05/05 00:14:02;;;;;;;21.85;6.45;;;28.40;31.20;;;;;;1045877;28;20017;-74
2021/05/05 00:14:34;;;;;;;27.33;6.55;;;28.40;31.50;;;;;;1047186;28;20021;-73
2021/05/05 00:15:20;;;;;;;26.80;7.18;;;28.30;31.70;;;;;;1042968;28;20032;-73
2021/05/05 00:15:52;;;;;;;23.05;6.88;;;28.30;31.60;;;;;;1041692;28;20040;-74
2021/05/05 00:16:23;;;;;;;19.33;6.47;;;28.30;31.60;;;;;;1041420;28;20470;-74
2021/05/05 00:16:54;;;;;;;20.75;6.85;;;28.20;31.70;;;;;;1045207;28;20071;-73
2021/05/05 00:17:26;;;;;;;20.70;6.60;;;28.20;32.00;;;;;;1048832;28;20029;-73
2021/05/05 00:17:57;;;;;;;22.77;6.60;;;28.10;31.80;;;;;;1044152;28;20021;-73
2021/05/05 00:18:29;;;;;;;21.08;6.72;;;28.00;31.90;;;;;;1044348;28;20056;-73
2021/05/05 00:19:00;;;;;;;21.38;6.75;;;28.00;32.00;;;;;;1045307;28;20044;-73
2021/05/05 00:19:31;;;;;;;20.13;6.68;;;27.90;32.30;;;;;;1045039;28;20029;-75
2021/05/05 00:20:05;;;;;;;22.42;6.90;;;27.80;32.70;;;;;;1044265;28;20060;-75
2021/05/05 00:20:36;;;;;;;19.58;6.63;;;27.80;32.80;;;;;;1044881;28;20044;-74
2021/05/05 00:21:08;;;;;;;24.38;6.93;;;27.80;32.80;;;;;;1045089;28;20024;-73
2021/05/05 00:21:41;;;;;;;19.90;6.55;;;27.70;32.80;;;;;;1045218;28;20049;-74
2021/05/05 00:22:12;;;;;;;19.83;6.70;;;27.70;33.00;;;;;;1045215;28;20025;-74
2021/05/05 00:22:43;;;;;;;23.02;6.78;;;27.60;33.30;;;;;;1043838;28;20025;-74
2021/05/05 00:23:15;;;;;;;20.95;6.68;;;27.60;33.10;;;;;;1043431;28;20458;-73
2021/05/05 00:23:46;;;;;;;22.05;6.45;;;27.60;32.90;;;;;;1044807;28;20375;-73
2021/05/05 00:24:18;;;;;;;22.45;6.38;;;27.50;32.80;;;;;;1040184;28;20072;-73
2021/05/05 00:24:49;;;;;;;23.55;7.20;;;27.50;33.00;;;;;;1036689;28;20029;-74
2021/05/05 00:25:21;;;;;;;21.98;6.63;;;27.40;33.10;;;;;;1039154;28;20124;-73
2021/05/05 00:25:52;;;;;;;22.20;6.97;;;27.40;33.20;;;;;;1039549;28;20021;-73
2021/05/05 00:26:24;;;;;;;22.50;6.45;;;27.40;33.30;;;;;;1040518;28;20470;-73
2021/05/05 00:26:55;;;;;;;23.42;6.93;;;27.40;33.40;;;;;;1044795;28;20021;-73
2021/05/05 00:27:27;;;;;;;19.80;6.40;;;27.40;33.20;;;;;;1043752;28;20067;-73
2021/05/05 00:27:58;;;;;;;21.80;6.68;;;27.40;33.10;;;;;;1040835;28;20049;-73
2021/05/05 00:28:30;;;;;;;24.85;7.15;;;27.30;33.30;;;;;;1041019;28;20029;-74
2021/05/05 00:29:01;;;;;;;29.60;11.23;;;27.40;33.50;;;;;;1044235;28;20017;-73
2021/05/05 00:29:33;;;;;;;25.10;8.18;;;27.30;33.70;;;;;;1045371;28;20021;-73
2021/05/05 00:30:07;;;;;;;19.35;7.05;;;27.20;33.90;;;;;;1044727;28;20083;-75
2021/05/05 00:30:38;;;;;;;20.67;6.82;;;27.20;34.20;;;;;;1044739;28;20048;-74
2021/05/05 00:31:10;;;;;;;23.98;7.18;;;27.20;34.20;;;;;;1044737;28;20025;-73
2021/05/05 00:31:41;;;;;;;21.50;6.90;;;27.10;34.10;;;;;;1044663;28;20021;-74
2021/05/05 00:32:13;;;;;;;24.15;6.65;;;27.10;33.90;;;;;;1045441;28;20032;-74
2021/05/05 00:32:44;;;;;;;23.27;6.95;;;27.10;33.70;;;;;;1049101;28;20096;-73
2021/05/05 00:33:15;;;;;;;21.58;6.40;;;27.10;33.90;;;;;;1044565;28;20116;-73
2021/05/05 00:33:47;;;;;;;21.20;6.68;;;27.10;34.00;;;;;;1041451;28;20018;-73
2021/05/05 00:34:18;;;;;;;22.95;6.68;;;27.00;33.80;;;;;;1043559;28;20035;-73
2021/05/05 00:34:50;;;;;;;18.55;6.57;;;27.00;33.90;;;;;;1041228;28;20013;-73
2021/05/05 00:35:21;;;;;;;18.42;6.63;;;27.00;33.90;;;;;;1045065;28;20042;-73
2021/05/05 00:35:53;;;;;;;22.13;6.53;;;27.00;34.00;;;;;;1044537;28;20106;-73
2021/05/05 00:36:24;;;;;;;21.75;6.55;;;27.00;33.90;;;;;;1041035;28;20375;-73
2021/05/05 00:36:56;;;;;;;23.15;6.72;;;27.00;34.00;;;;;;1044651;28;20021;-75
2021/05/05 00:37:27;;;;;;;20.65;6.22;;;27.00;34.10;;;;;;1045121;28;20021;-74
2021/05/05 00:37:58;;;;;;;23.88;6.60;;;26.90;34.00;;;;;;1042948;28;20025;-73
2021/05/05 00:38:30;;;;;;;22.70;6.95;;;26.90;34.10;;;;;;1044754;28;20017;-73
2021/05/05 00:39:03;;;;;;;21.30;6.65;;;26.80;34.30;;;;;;1044522;28;20079;-73
2021/05/05 00:39:35;;;;;;;23.23;6.60;;;26.70;34.40;;;;;;1043653;28;20089;-73
2021/05/05 00:40:08;;;;;;;20.95;6.57;;;26.70;34.50;;;;;;1043398;28;20029;-73
2021/05/05 00:40:39;;;;;;;19.17;6.32;;;26.60;34.40;;;;;;1042976;28;20458;-73
2021/05/05 00:41:11;;;;;;;20.98;7.03;;;26.60;34.20;;;;;;1043468;28;20025;-73
2021/05/05 00:41:43;;;;;;;19.33;6.40;;;26.60;34.20;;;;;;1040693;28;20466;-73
2021/05/05 00:42:14;;;;;;;19.23;6.32;;;26.50;34.20;;;;;;1040616;28;20068;-74
2021/05/05 00:42:45;;;;;;;20.98;6.20;;;26.40;34.40;;;;;;1036485;28;20053;-74
2021/05/05 00:43:17;;;;;;;26.27;6.78;;;26.40;34.60;;;;;;1039759;28;20018;-73
2021/05/05 00:43:48;;;;;;;24.05;7.13;;;26.40;34.70;;;;;;1042375;28;20474;-73
2021/05/05 00:44:22;;;;;;;24.45;6.95;;;26.40;34.90;;;;;;1041022;28;20039;-74
2021/05/05 00:45:00;;;;;;;17.95;6.43;;;26.40;35.20;;;;;;1043063;28;20354;-73
2021/05/05 00:45:31;;;;;;;19.95;6.53;;;26.30;34.90;;;;;;1040596;28;20025;-73
2021/05/05 00:46:04;;;;;;;22.60;5.90;;;26.30;35.00;;;;;;1043343;28;20475;-74
2021/05/05 00:46:35;;;;;;;22.23;7.05;;;26.30;35.20;;;;;;1045092;28;20013;-74
2021/05/05 00:47:08;;;;;;;19.70;6.53;;;26.20;35.10;;;;;;1044861;28;20017;-74
2021/05/05 00:47:40;;;;;;;23.20;6.50;;;26.20;35.20;;;;;;1043442;28;20024;-73
2021/05/05 00:48:12;;;;;;;19.20;6.45;;;26.10;35.50;;;;;;1045150;28;20454;-74
2021/05/05 00:48:44;;;;;;;25.77;7.00;;;26.10;35.50;;;;;;1045366;28;20009;-74
2021/05/05 00:49:15;;;;;;;21.38;6.13;;;26.00;35.60;;;;;;1045290;28;20504;-74
2021/05/05 00:49:46;;;;;;;25.75;7.22;;;25.90;35.80;;;;;;1045286;28;20021;-73
2021/05/05 00:50:18;;;;;;;20.88;6.47;;;25.90;35.80;;;;;;1044642;28;20485;-73
2021/05/05 00:50:50;;;;;;;17.25;6.15;;;25.90;35.80;;;;;;1040815;28;20028;-73
2021/05/05 00:51:21;;;;;;;21.40;6.85;;;25.80;35.70;;;;;;1036662;28;20075;-73
2021/05/05 00:51:53;;;;;;;25.85;6.68;;;25.80;35.90;;;;;;1032810;28;20110;-73
2021/05/05 00:52:25;;;;;;;22.30;6.53;;;25.70;36.70;;;;;;1033108;28;20030;-74
2021/05/05 00:52:56;;;;;;;22.38;7.40;;;25.80;36.30;;;;;;1037288;28;20100;-74
2021/05/05 00:53:28;;;;;;;23.40;6.72;;;25.80;36.30;;;;;;1041447;28;20014;-74
2021/05/05 00:53:59;;;;;;;22.77;6.57;;;25.80;36.40;;;;;;1044553;28;20025;-73
2021/05/05 00:54:31;;;;;;;19.35;6.50;;;25.80;36.30;;;;;;1045070;28;20066;-73
2021/05/05 00:55:03;;;;;;;22.20;6.72;;;25.80;36.10;;;;;;1045196;28;20013;-74
2021/05/05 00:55:34;;;;;;;22.27;6.45;;;25.70;36.00;;;;;;1044887;28;20016;-73
2021/05/05 00:56:06;;;;;;;23.83;6.85;;;25.70;36.10;;;;;;1044946;28;20438;-73
2021/05/05 00:56:37;;;;;;;24.90;6.20;;;25.60;35.90;;;;;;1045037;28;20013;-73
2021/05/05 00:57:09;;;;;;;20.23;6.15;;;25.60;36.10;;;;;;1045019;28;20086;-74
2021/05/05 00:57:43;;;;;;;18.70;6.50;;;25.50;36.20;;;;;;1044706;28;20501;-74
2021/05/05 00:58:15;;;;;;;22.58;6.72;;;25.60;36.40;;;;;;1044864;28;20016;-75
2021/05/05 00:58:47;;;;;;;22.17;7.13;;;25.50;36.20;;;;;;1044353;28;20009;-74
2021/05/05 00:59:18;;;;;;;21.05;7.10;;;25.40;36.20;;;;;;1044018;28;20024;-74
2021/05/05 00:59:50;;;;;;;21.95;6.90;;;25.50;36.40;;;;;;1045123;28;20013;-73
2021/05/05 01:00:23;;;;;;;19.40;6.30;;;25.50;36.60;;;;;;1044899;28;20498;-74
2021/05/05 01:00:55;;;;;;;23.45;6.80;;;25.50;36.80;;;;;;1043377;28;20072;-73
2021/05/05 01:01:26;;;;;;;23.63;7.03;;;25.50;36.70;;;;;;1045087;28;20506;-74
2021/05/05 01:01:58;;;;;;;24.25;7.25;;;25.50;36.50;;;;;;1044985;28;20028;-74
2021/05/05 01:02:29;;;;;;;21.75;7.00;;;25.50;36.40;;;;;;1045052;28;20013;-74
2021/05/05 01:03:00;;;;;;;18.92;6.30;;;25.50;36.50;;;;;;1040790;28;20367;-74
2021/05/05 01:03:33;;;;;;;21.75;6.38;;;25.50;36.40;;;;;;1041131;28;20131;-73
2021/05/05 01:04:04;;;;;;;22.98;7.07;;;25.50;36.50;;;;;;1044600;28;20104;-73
2021/05/05 01:04:36;;;;;;;20.05;6.55;;;25.50;36.60;;;;;;1045620;28;20017;-74
2021/05/05 01:05:09;;;;;;;20.40;6.40;;;25.50;36.60;;;;;;1048427;28;20009;-73
2021/05/05 01:05:40;;;;;;;21.02;6.35;;;25.50;36.50;;;;;;1045771;28;20462;-73
2021/05/05 01:06:13;;;;;;;18.00;6.60;;;25.50;36.70;;;;;;1042817;28;20018;-73
2021/05/05 01:06:44;;;;;;;24.40;6.85;;;25.60;36.70;;;;;;1045104;28;20017;-73
2021/05/05 01:07:16;;;;;;;21.90;6.40;;;25.60;36.20;;;;;;1045024;28;20074;-73
2021/05/05 01:07:48;;;;;;;22.13;6.40;;;25.50;36.00;;;;;;1044928;28;20066;-73
2021/05/05 01:08:22;;;;;;;20.30;6.80;;;25.60;36.20;;;;;;1044887;28;20017;-74
2021/05/05 01:08:54;;;;;;;23.08;6.80;;;25.60;36.30;;;;;;1043614;28;20028;-74
2021/05/05 01:09:27;;;;;;;21.27;6.70;;;25.70;36.50;;;;;;1048060;28;20121;-73
2021/05/05 01:09:58;;;;;;;19.05;6.60;;;25.70;36.50;;;;;;1040739;28;20083;-73
2021/05/05 01:10:30;;;;;;;21.10;6.25;;;25.70;36.50;;;;;;1040925;28;20014;-72
2021/05/05 01:11:02;;;;;;;19.25;6.47;;;25.70;36.40;;;;;;1041582;28;20099;-73
2021/05/05 01:11:33;;;;;;;20.85;6.75;;;25.70;36.40;;;;;;1041476;28;20032;-73
2021/05/05 01:12:06;;;;;;;15.75;6.32;;;25.70;36.50;;;;;;1044697;28;20013;-73
2021/05/05 01:12:37;;;;;;;20.08;6.30;;;25.70;36.50;;;;;;1044738;28;20100;-73
2021/05/05 01:13:10;;;;;;;24.65;6.95;;;25.80;36.40;;;;;;1045236;28;20028;-73
2021/05/05 01:13:43;;;;;;;19.75;6.15;;;25.70;36.10;;;;;;1044506;28;20024;-73
2021/05/05 01:14:16;;;;;;;23.17;6.72;;;25.70;36.00;;;;;;1044804;28;20419;-73
2021/05/05 01:14:49;;;;;;;19.27;6.57;;;25.70;36.00;;;;;;1044917;28;20021;-73
2021/05/05 01:15:20;;;;;;;20.55;6.47;;;25.70;36.50;;;;;;1045007;28;20035;-72
2021/05/05 01:15:52;;;;;;;20.70;6.15;;;25.70;35.90;;;;;;1040804;28;20406;-73
2021/05/05 01:16:23;;;;;;;18.55;6.38;;;25.70;35.90;;;;;;1041267;28;20028;-73
2021/05/05 01:16:55;;;;;;;23.17;6.72;;;25.70;36.00;;;;;;1046384;28;20024;-74
2021/05/05 01:17:27;;;;;;;25.85;7.13;;;25.70;36.00;;;;;;1044496;28;20414;-74
2021/05/05 01:17:59;;;;;;;24.50;6.63;;;25.70;36.20;;;;;;1040247;28;20471;-73
2021/05/05 01:18:30;;;;;;;21.88;6.05;;;25.70;36.10;;;;;;1036290;28;20525;-73
2021/05/05 01:19:01;;;;;;;25.60;6.80;;;25.80;36.20;;;;;;1040928;28;20025;-73
2021/05/05 01:19:34;;;;;;;21.05;6.32;;;25.70;36.10;;;;;;1039815;28;20029;-72
2021/05/05 01:20:07;;;;;;;18.05;5.85;;;25.70;36.30;;;;;;1040599;28;20026;-72
2021/05/05 01:20:39;;;;;;;22.80;6.68;;;25.70;35.90;;;;;;1044236;28;20083;-74
2021/05/05 01:21:10;;;;;;;22.63;6.20;;;25.70;35.90;;;;;;1045626;28;20363;-73
2021/05/05 01:21:42;;;;;;;22.15;6.55;;;25.70;36.00;;;;;;1044014;28;20025;-73
2021/05/05 01:22:13;;;;;;;21.33;6.43;;;25.70;36.00;;;;;;1045034;28;20028;-73
2021/05/05 01:22:45;;;;;;;23.38;6.53;;;25.60;35.90;;;;;;1048283;28;20017;-75
2021/05/05 01:23:16;;;;;;;18.80;6.10;;;25.60;36.10;;;;;;1049588;28;20590;-73
2021/05/05 01:23:48;;;;;;;21.75;6.13;;;25.70;36.20;;;;;;1049695;28;20031;-72
2021/05/05 01:24:19;;;;;;;20.70;6.40;;;25.70;35.90;;;;;;1043454;28;20013;-73
2021/05/05 01:24:50;;;;;;;22.60;6.50;;;25.70;35.90;;;;;;1045317;28;20118;-73
2021/05/05 01:25:22;;;;;;;18.98;6.07;;;25.60;36.00;;;;;;1045221;28;20039;-73
2021/05/05 01:25:54;;;;;;;20.10;6.50;;;25.60;36.30;;;;;;1044979;28;20067;-74
2021/05/05 01:26:28;;;;;;;22.33;6.25;;;25.60;36.40;;;;;;1044304;28;20025;-72
2021/05/05 01:27:00;;;;;;;21.30;6.28;;;25.60;36.40;;;;;;1041162;28;20017;-73
2021/05/05 01:27:32;;;;;;;25.40;6.13;;;25.60;36.60;;;;;;1038909;28;20017;-73
2021/05/05 01:28:04;;;;;;;23.70;7.13;;;25.60;36.60;;;;;;1041458;28;20021;-73
2021/05/05 01:28:41;;;;;;;21.98;7.50;;;25.60;36.60;;;;;;1044927;28;20013;-73
2021/05/05 01:29:12;;;;;;;22.33;9.50;;;25.60;36.60;;;;;;1044734;28;20467;-73
2021/05/05 01:29:48;;;;;;;25.38;10.70;;;25.60;36.60;;;;;;1046070;28;20028;-73
2021/05/05 01:30:21;;;;;;;26.13;8.40;;;25.60;36.60;;;;;;1043797;28;20021;-72
2021/05/05 01:30:53;;;;;;;24.23;7.05;;;25.60;36.50;;;;;;1039386;28;20032;-73
2021/05/05 01:31:25;;;;;;;19.40;6.55;;;25.70;36.20;;;;;;1040670;28;20018;-73
2021/05/05 01:31:56;;;;;;;21.83;6.72;;;25.60;36.20;;;;;;1041141;28;20036;-73
2021/05/05 01:32:29;;;;;;;17.50;6.00;;;25.60;36.60;;;;;;1043426;28;20032;-73
2021/05/05 01:33:00;;;;;;;20.48;6.57;;;25.50;36.80;;;;;;1047348;28;20418;-72
2021/05/05 01:33:32;;;;;;;23.15;6.60;;;25.50;36.60;;;;;;1046416;28;20021;-72
2021/05/05 01:34:04;;;;;;;21.63;6.75;;;25.40;36.70;;;;;;1044568;28;20013;-73
2021/05/05 01:34:35;;;;;;;20.75;6.45;;;25.40;36.90;;;;;;1042985;28;20021;-73
2021/05/05 01:35:09;;;;;;;22.58;7.28;;;25.30;37.00;;;;;;1041359;28;20359;-73
2021/05/05 01:35:42;;;;;;;22.73;6.75;;;25.30;37.20;;;;;;1042589;28;20060;-73
2021/05/05 01:36:17;;;;;;;21.08;6.70;;;25.20;37.20;;;;;;1044581;28;20061;-73
2021/05/05 01:36:49;;;;;;;21.67;6.47;;;25.20;37.50;;;;;;1044665;28;20022;-73
2021/05/05 01:37:20;;;;;;;22.17;6.75;;;25.20;37.20;;;;;;1040364;28;20018;-73
2021/05/05 01:37:52;;;;;;;23.00;7.05;;;25.10;37.30;;;;;;1036910;28;20022;-73
2021/05/05 01:38:24;;;;;;;20.65;6.53;;;25.10;37.50;;;;;;1032530;28;20033;-73
2021/05/05 01:38:55;;;;;;;19.10;6.90;;;25.10;37.50;;;;;;1033088;28;20010;-73
2021/05/05 01:39:27;;;;;;;24.08;7.15;;;25.00;37.50;;;;;;1036786;28;20479;-73
2021/05/05 01:39:58;;;;;;;21.30;6.43;;;25.00;37.60;;;;;;1040422;28;20365;-73
2021/05/05 01:40:32;;;;;;;19.15;5.80;;;25.00;37.80;;;;;;1038122;28;20039;-73
2021/05/05 01:41:04;;;;;;;22.02;6.55;;;25.00;37.90;;;;;;1036122;28;21398;-73
2021/05/05 01:41:36;;;;;;;22.45;6.88;;;24.90;38.00;;;;;;1037305;28;20080;-73
2021/05/05 01:42:08;;;;;;;22.17;6.38;;;24.90;37.90;;;;;;1040759;28;20021;-73
2021/05/05 01:42:39;;;;;;;23.08;8.05;;;24.90;38.00;;;;;;1041205;28;20359;-73
2021/05/05 01:43:11;;;;;;;23.05;7.05;;;24.90;38.00;;;;;;1037009;28;20022;-73
2021/05/05 01:43:43;;;;;;;24.75;6.93;;;24.80;37.90;;;;;;1040728;28;20022;-73
2021/05/05 01:44:15;;;;;;;23.63;6.20;;;24.80;38.00;;;;;;1040245;28;20037;-73
2021/05/05 01:44:46;;;;;;;24.08;7.32;;;24.70;38.00;;;;;;1040078;28;20013;-73
2021/05/05 01:45:18;;;;;;;25.02;7.38;;;24.70;38.10;;;;;;1044223;28;20025;-73
2021/05/05 01:45:49;;;;;;;23.10;6.97;;;24.70;38.10;;;;;;1044885;28;20017;-73
2021/05/05 01:46:22;;;;;;;26.20;7.20;;;24.60;38.30;;;;;;1045115;28;20021;-73
2021/05/05 01:46:53;;;;;;;26.92;7.00;;;24.60;38.40;;;;;;1044943;28;20044;-73
2021/05/05 01:47:25;;;;;;;20.50;6.63;;;24.60;38.50;;;;;;1045103;28;20021;-73
2021/05/05 01:48:03;;;;;;;21.70;6.75;;;24.50;38.50;;;;;;1044288;28;20588;-72
2021/05/05 01:48:35;;;;;;;23.02;7.50;;;24.50;38.50;;;;;;1043208;28;20030;-73
2021/05/05 01:49:06;;;;;;;23.92;6.97;;;24.40;38.70;;;;;;1047047;28;20066;-73
2021/05/05 01:49:46;;;;;;;22.58;6.65;;;24.40;38.80;;;;;;1048302;28;20088;-73
2021/05/05 01:50:17;;;;;;;19.40;6.60;;;24.30;38.90;;;;;;1044184;28;20021;-73
2021/05/05 01:50:48;;;;;;;26.73;7.03;;;24.30;39.10;;;;;;1044822;28;20040;-73
2021/05/05 01:51:20;;;;;;;26.88;7.45;;;24.20;39.10;;;;;;1039730;28;20017;-73
2021/05/05 01:51:55;;;;;;;24.10;6.82;;;24.20;39.00;;;;;;1039338;28;21728;-74
2021/05/05 01:52:26;;;;;;;24.05;6.68;;;24.20;39.10;;;;;;1039471;28;20013;-73
2021/05/05 01:52:58;;;;;;;21.45;6.90;;;24.10;39.20;;;;;;1037164;28;20471;-74
2021/05/05 01:53:29;;;;;;;20.98;6.65;;;24.10;39.30;;;;;;1039476;28;20014;-73
2021/05/05 01:54:00;;;;;;;26.60;7.20;;;24.10;39.30;;;;;;1040837;28;20734;-73
2021/05/05 01:54:36;;;;;;;20.13;6.43;;;24.10;39.30;;;;;;1041090;28;20455;-73
2021/05/05 01:55:09;;;;;;;24.75;7.10;;;24.00;39.30;;;;;;1044250;28;20462;-73
2021/05/05 01:55:41;;;;;;;20.60;6.53;;;24.00;39.40;;;;;;1037549;28;20018;-73
2021/05/05 01:56:12;;;;;;;24.88;7.30;;;23.90;39.40;;;;;;1040739;28;20026;-73
2021/05/05 01:56:44;;;;;;;24.60;6.63;;;23.90;39.40;;;;;;1043228;28;20041;-72
2021/05/05 01:57:35;;;;;;;22.42;6.70;;;23.90;39.60;;;;;;1038271;28;20400;-73
2021/05/05 01:58:06;;;;;;;23.58;7.35;;;23.80;39.70;;;;;;1040628;28;20092;-72
2021/05/05 01:58:38;;;;;;;24.45;6.75;;;23.70;39.80;;;;;;1040388;28;20048;-73
2021/05/05 01:59:09;;;;;;;21.30;6.28;;;23.70;40.00;;;;;;1043795;28;20024;-73
2021/05/05 01:59:40;;;;;;;23.77;6.68;;;23.70;40.10;;;;;;1044328;28;20462;-73
2021/05/05 02:00:16;;;;;;;21.27;6.57;;;23.60;39.90;;;;;;1039183;28;20017;-73
2021/05/05 02:00:48;;;;;;;23.67;7.20;;;23.60;40.00;;;;;;1044541;28;20051;-74
2021/05/05 02:01:19;;;;;;;20.33;6.47;;;23.60;40.10;;;;;;1040543;28;20352;-73
2021/05/05 02:01:50;;;;;;;21.10;6.47;;;23.60;40.30;;;;;;1041679;28;20694;-73
2021/05/05 02:02:22;;;;;;;19.25;6.30;;;23.50;40.30;;;;;;1044074;28;20489;-73
2021/05/05 02:02:54;;;;;;;21.90;6.82;;;23.60;40.40;;;;;;1040453;28;20049;-73
2021/05/05 02:03:25;;;;;;;26.15;6.95;;;23.60;40.50;;;;;;1040649;28;20025;-73
2021/05/05 02:04:01;;;;;;;19.73;6.72;;;23.50;40.50;;;;;;1040548;28;20063;-73
2021/05/05 02:04:33;;;;;;;19.92;6.22;;;23.50;40.60;;;;;;1041797;28;20018;-73
2021/05/05 02:05:05;;;;;;;22.23;6.75;;;23.40;40.60;;;;;;1044502;28;20017;-72
2021/05/05 02:05:37;;;;;;;26.83;6.97;;;23.40;40.60;;;;;;1044612;28;20020;-73
2021/05/05 02:06:09;;;;;;;22.38;6.78;;;23.30;40.50;;;;;;1045407;28;20037;-74
2021/05/05 02:06:40;;;;;;;24.13;7.10;;;23.30;40.70;;;;;;1048195;28;20004;-72
2021/05/05 02:07:12;;;;;;;21.92;7.25;;;23.30;40.70;;;;;;1044589;28;20021;-73
2021/05/05 02:07:43;;;;;;;21.83;6.65;;;23.10;40.70;;;;;;1044441;28;20016;-73
2021/05/05 02:08:15;;;;;;;24.30;6.93;;;23.10;40.90;;;;;;1040577;28;20406;-74
2021/05/05 02:08:46;;;;;;;26.08;6.78;;;23.10;41.00;;;;;;1041121;28;20045;-74
2021/05/05 02:09:17;;;;;;;25.42;6.78;;;23.00;41.10;;;;;;1044724;28;20451;-73
2021/05/05 02:09:49;;;;;;;20.83;6.03;;;23.00;41.20;;;;;;1041032;28;20407;-73
2021/05/05 02:10:21;;;;;;;28.27;7.55;;;23.00;41.20;;;;;;1040526;28;20140;-73
2021/05/05 02:10:52;;;;;;;25.35;6.93;;;23.00;41.30;;;;;;1040628;28;20434;-73
2021/05/05 02:11:24;;;;;;;20.75;6.97;;;23.00;41.10;;;;;;1039847;28;20018;-74
2021/05/05 02:11:55;;;;;;;23.77;6.43;;;22.90;41.10;;;;;;1043964;28;20018;-73
2021/05/05 02:12:29;;;;;;;22.27;6.88;;;22.80;41.20;;;;;;1044609;28;20024;-73
2021/05/05 02:13:00;;;;;;;21.13;6.85;;;22.80;41.40;;;;;;1040673;28;20021;-73
2021/05/05 02:13:32;;;;;;;28.15;6.85;;;22.70;41.50;;;;;;1044014;28;20039;-73
2021/05/05 02:14:04;;;;;;;26.17;7.05;;;22.70;41.60;;;;;;1044986;28;20045;-73
2021/05/05 02:14:35;;;;;;;23.88;6.47;;;22.70;42.20;;;;;;1045034;28;20347;-73
2021/05/05 02:15:09;;;;;;;23.65;6.70;;;22.80;41.40;;;;;;1043624;28;20151;-73
2021/05/05 02:15:41;;;;;;;23.40;7.03;;;22.70;41.30;;;;;;1042353;28;20009;-75
2021/05/05 02:16:13;;;;;;;24.08;7.22;;;22.70;41.30;;;;;;1044416;28;20083;-73
2021/05/05 02:16:44;;;;;;;28.67;7.20;;;22.60;41.40;;;;;;1043768;28;20041;-73
2021/05/05 02:17:17;;;;;;;22.50;6.78;;;22.60;41.50;;;;;;1040471;28;20060;-73
2021/05/05 02:17:50;;;;;;;26.38;6.88;;;22.60;41.60;;;;;;1039939;28;20474;-73
2021/05/05 02:18:23;;;;;;;22.95;7.05;;;22.50;41.70;;;;;;1040447;28;20071;-72
2021/05/05 02:18:54;;;;;;;25.02;6.47;;;22.50;41.80;;;;;;1034822;28;20025;-73
2021/05/05 02:19:26;;;;;;;21.80;6.72;;;22.50;41.90;;;;;;1040569;28;20021;-73
2021/05/05 02:19:57;;;;;;;26.27;7.03;;;22.50;42.10;;;;;;1044328;28;20468;-74
2021/05/05 02:20:29;;;;;;;22.00;6.40;;;22.40;42.10;;;;;;1044101;28;20106;-73
2021/05/05 02:21:00;;;;;;;28.10;7.32;;;22.40;42.10;;;;;;1040782;28;20351;-73
2021/05/05 02:21:31;;;;;;;27.48;7.22;;;22.40;42.20;;;;;;1042011;28;20126;-73
2021/05/05 02:22:03;;;;;;;24.70;6.93;;;22.40;42.10;;;;;;1044478;28;20447;-73
2021/05/05 02:22:34;;;;;;;24.60;6.95;;;22.30;42.00;;;;;;1044640;28;20040;-73
2021/05/05 02:23:06;;;;;;;25.02;6.75;;;22.30;42.00;;;;;;1044597;28;20417;-73
2021/05/05 02:23:39;;;;;;;22.60;6.93;;;22.30;42.10;;;;;;1046119;28;20052;-73
2021/05/05 02:24:10;;;;;;;28.85;6.95;;;22.20;42.20;;;;;;1044029;28;20447;-73
2021/05/05 02:24:42;;;;;;;23.35;6.97;;;22.10;42.30;;;;;;1041415;28;20021;-74
2021/05/05 02:25:13;;;;;;;23.90;6.97;;;22.00;42.50;;;;;;1040611;28;20025;-73
2021/05/05 02:25:45;;;;;;;24.40;7.18;;;22.00;42.50;;;;;;1042266;28;20041;-73
2021/05/05 02:26:16;;;;;;;21.73;6.85;;;22.00;42.70;;;;;;1044933;28;20443;-72
2021/05/05 02:26:48;;;;;;;29.77;7.20;;;21.90;42.90;;;;;;1044117;28;20024;-73
2021/05/05 02:27:19;;;;;;;30.65;8.02;;;21.80;43.00;;;;;;1044696;28;20013;-73
2021/05/05 02:27:51;;;;;;;23.38;6.75;;;21.70;43.20;;;;;;1040442;28;20017;-73
2021/05/05 02:28:22;;;;;;;21.70;6.45;;;21.60;43.30;;;;;;1041100;28;20012;-73
2021/05/05 02:28:53;;;;;;;26.48;7.40;;;21.60;43.60;;;;;;1044903;28;20427;-74
2021/05/05 02:29:25;;;;;;;24.13;7.07;;;21.50;44.20;;;;;;1039384;28;20605;-73
2021/05/05 02:29:57;;;;;;;25.45;7.28;;;21.50;43.70;;;;;;1036487;28;20029;-73
2021/05/05 02:30:28;;;;;;;30.30;7.35;;;21.50;43.80;;;;;;1043987;28;20033;-73
2021/05/05 02:31:00;;;;;;;25.67;6.93;;;21.40;44.00;;;;;;1039746;28;20017;-73
2021/05/05 02:31:31;;;;;;;23.02;6.82;;;21.30;44.10;;;;;;1040824;28;20025;-73
2021/05/05 02:32:10;;;;;;;26.80;6.63;;;21.20;44.10;;;;;;1043788;28;20453;-73
2021/05/05 02:32:44;;;;;;;26.63;7.43;;;21.20;44.50;;;;;;1043489;28;20021;-73
2021/05/05 02:33:15;;;;;;;29.95;7.20;;;21.20;44.50;;;;;;1041794;28;20101;-72
2021/05/05 02:33:47;;;;;;;24.20;7.20;;;21.20;44.60;;;;;;1045057;28;20026;-73
2021/05/05 02:34:18;;;;;;;29.55;7.28;;;21.00;44.60;;;;;;1048981;28;20020;-74
2021/05/05 02:34:51;;;;;;;24.15;6.90;;;21.00;44.80;;;;;;1044705;28;20017;-73
2021/05/05 02:35:22;;;;;;;27.73;7.40;;;21.00;44.90;;;;;;1040416;28;20036;-73
2021/05/05 02:35:54;;;;;;;27.10;7.05;;;21.00;45.00;;;;;;1035130;28;20054;-73
2021/05/05 02:36:29;;;;;;;25.30;7.05;;;20.90;45.00;;;;;;1036518;28;20038;-74
2021/05/05 02:37:00;;;;;;;27.48;7.93;;;20.90;45.10;;;;;;1037291;28;20352;-73
2021/05/05 02:37:32;;;;;;;27.73;7.18;;;20.90;45.30;;;;;;1039962;28;20026;-73
2021/05/05 02:38:04;;;;;;;25.10;7.10;;;20.90;45.40;;;;;;1040394;28;20014;-73
2021/05/05 02:38:35;;;;;;;28.20;7.55;;;20.80;45.30;;;;;;1041009;28;20075;-73
2021/05/05 02:39:09;;;;;;;27.88;7.35;;;20.80;45.40;;;;;;1044711;28;20017;-73
2021/05/05 02:39:42;;;;;;;27.42;7.03;;;20.80;45.40;;;;;;1044801;28;20076;-73
2021/05/05 02:40:15;;;;;;;26.67;6.88;;;20.80;45.60;;;;;;1044746;28;20358;-73
2021/05/05 02:40:48;;;;;;;28.83;7.18;;;20.70;45.60;;;;;;1044021;28;20087;-73
2021/05/05 02:41:20;;;;;;;27.45;7.45;;;20.70;45.50;;;;;;1041971;28;20458;-72
2021/05/05 02:41:51;;;;;;;29.23;7.53;;;20.70;45.80;;;;;;1047198;28;20021;-74
2021/05/05 02:42:23;;;;;;;23.23;6.43;;;20.60;45.90;;;;;;1044936;28;20020;-73
2021/05/05 02:42:55;;;;;;;26.30;7.63;;;20.60;46.00;;;;;;1044178;28;20406;-73
2021/05/05 02:43:26;;;;;;;23.45;7.22;;;20.50;46.10;;;;;;1043634;28;20051;-74
2021/05/05 02:43:57;;;;;;;27.23;7.80;;;20.50;46.30;;;;;;1043232;28;20027;-73
2021/05/05 02:44:29;;;;;;;26.48;7.18;;;20.50;46.40;;;;;;1044815;28;20158;-76